createdAt,value
2022-10-15T00:00:37.172Z,12.06
2022-10-15T00:01:37.103Z,12.06
2022-10-15T00:02:37.055Z,12.06
2022-10-15T00:03:37.163Z,12.06
2022-10-15T00:04:37.098Z,12.06
2022-10-15T00:05:37.077Z,11.99
2022-10-15T00:06:37.084Z,11.99
2022-10-15T00:07:37.087Z,11.99
2022-10-15T00:08:37.093Z,12.06
2022-10-15T00:09:37.037Z,12.06
2022-10-15T00:10:37.114Z,12.06
2022-10-15T00:11:37.142Z,12.06
2022-10-15T00:12:37.114Z,12.06
2022-10-15T00:13:37.129Z,12.06
2022-10-15T00:14:37.039Z,12.06
2022-10-15T00:15:37.053Z,11.99
2022-10-15T00:16:37.146Z,11.99
2022-10-15T00:17:37.146Z,11.99
2022-10-15T00:18:37.057Z,11.99
2022-10-15T00:19:37.158Z,11.99
2022-10-15T00:20:37.177Z,11.99
2022-10-15T00:21:37.069Z,11.91
2022-10-15T00:22:37.071Z,11.91
2022-10-15T00:23:37.060Z,11.99
2022-10-15T00:24:37.085Z,11.99
2022-10-15T00:25:37.094Z,11.91
2022-10-15T00:26:37.108Z,11.99
2022-10-15T00:27:37.046Z,11.91
2022-10-15T00:28:37.164Z,11.99
2022-10-15T00:29:37.159Z,11.99
2022-10-15T00:30:37.135Z,11.99
2022-10-15T00:31:37.135Z,11.91
2022-10-15T00:32:37.147Z,11.91
2022-10-15T00:33:37.153Z,11.91
2022-10-15T00:34:37.157Z,11.91
2022-10-15T00:35:37.166Z,11.91
2022-10-15T00:36:37.070Z,11.91
2022-10-15T00:37:37.075Z,11.91
2022-10-15T00:38:37.078Z,11.91
2022-10-15T00:39:37.074Z,11.91
2022-10-15T00:40:37.046Z,11.91
2022-10-15T00:41:37.091Z,11.91
2022-10-15T00:42:37.099Z,11.91
2022-10-15T00:43:37.088Z,11.91
2022-10-15T00:44:37.115Z,11.91
2022-10-15T00:45:37.123Z,11.91
2022-10-15T00:46:37.130Z,11.91
2022-10-15T00:47:37.039Z,11.91
2022-10-15T00:48:37.062Z,11.91
2022-10-15T00:49:37.047Z,11.91
2022-10-15T00:50:37.058Z,11.91
2022-10-15T00:51:37.080Z,11.91
2022-10-15T00:52:37.018Z,11.91
2022-10-15T00:53:37.071Z,11.91
2022-10-15T00:54:37.080Z,11.91
2022-10-15T00:55:37.076Z,11.91
2022-10-15T00:56:37.093Z,11.91
2022-10-15T00:57:37.096Z,11.91
2022-10-15T00:58:37.116Z,11.91
2022-10-15T00:59:37.110Z,11.91
2022-10-15T01:00:37.152Z,11.91
2022-10-15T01:01:37.144Z,11.99
2022-10-15T01:02:37.135Z,11.99
2022-10-15T01:03:37.045Z,11.99
2022-10-15T01:04:37.056Z,11.99
2022-10-15T01:05:37.152Z,11.99
2022-10-15T01:06:37.160Z,11.99
2022-10-15T01:07:37.063Z,11.99
2022-10-15T01:08:37.167Z,11.99
2022-10-15T01:09:37.071Z,11.99
2022-10-15T01:10:37.083Z,11.99
2022-10-15T01:11:37.090Z,11.99
2022-10-15T01:12:37.087Z,11.91
2022-10-15T01:13:37.090Z,11.91
2022-10-15T01:14:37.112Z,11.91
2022-10-15T01:15:37.048Z,11.91
2022-10-15T01:16:37.046Z,11.84
2022-10-15T01:17:37.129Z,11.84
2022-10-15T01:18:37.057Z,11.84
2022-10-15T01:19:37.045Z,11.84
2022-10-15T01:20:37.117Z,11.91
2022-10-15T01:21:37.049Z,11.91
2022-10-15T01:22:37.122Z,11.91
2022-10-15T01:23:37.074Z,11.91
2022-10-15T01:24:37.047Z,11.99
2022-10-15T01:25:37.045Z,11.99
2022-10-15T01:26:37.054Z,11.99
2022-10-15T01:27:37.054Z,11.99
2022-10-15T01:28:37.166Z,11.99
2022-10-15T01:29:37.061Z,11.99
2022-10-15T01:30:37.056Z,12.06
2022-10-15T01:31:37.144Z,12.06
2022-10-15T01:32:37.085Z,12.06
2022-10-15T01:33:37.058Z,12.06
2022-10-15T01:34:37.089Z,12.06
2022-10-15T01:35:37.055Z,12.06
2022-10-15T01:36:37.052Z,12.13
2022-10-15T01:37:37.113Z,12.06
2022-10-15T01:38:37.045Z,12.06
2022-10-15T01:39:37.101Z,11.99
2022-10-15T01:40:37.064Z,11.99
2022-10-15T01:41:37.060Z,11.99
2022-10-15T01:42:37.079Z,11.99
2022-10-15T01:43:37.057Z,11.99
2022-10-15T01:44:37.211Z,11.99
2022-10-15T01:45:37.060Z,12.06
2022-10-15T01:46:37.079Z,12.06
2022-10-15T01:47:37.086Z,12.06
2022-10-15T01:48:37.128Z,11.99
2022-10-15T01:49:37.131Z,11.99
2022-10-15T01:50:37.062Z,12.06
2022-10-15T01:51:37.060Z,11.99
2022-10-15T01:52:37.092Z,11.99
2022-10-15T01:53:37.078Z,11.99
2022-10-15T01:54:37.155Z,11.99
2022-10-15T01:55:37.069Z,12.06
2022-10-15T01:56:37.051Z,12.06
2022-10-15T01:57:37.064Z,11.99
2022-10-15T01:58:37.076Z,11.99
2022-10-15T01:59:37.213Z,11.99
2022-10-15T02:00:37.087Z,11.99
2022-10-15T02:01:37.118Z,11.99
2022-10-15T02:02:37.140Z,11.99
2022-10-15T02:03:37.070Z,11.99
2022-10-15T02:04:37.074Z,11.91
2022-10-15T02:05:37.059Z,11.99
2022-10-15T02:06:37.060Z,12.06
2022-10-15T02:07:37.101Z,12.06
2022-10-15T02:08:37.141Z,11.99
2022-10-15T02:09:37.077Z,12.06
2022-10-15T02:10:37.118Z,11.99
2022-10-15T02:11:37.073Z,12.06
2022-10-15T02:12:37.061Z,12.06
2022-10-15T02:13:37.033Z,12.06
2022-10-15T02:14:37.106Z,12.06
2022-10-15T02:15:37.050Z,11.99
2022-10-15T02:16:37.055Z,11.99
2022-10-15T02:17:37.072Z,11.99
2022-10-15T02:18:37.075Z,11.99
2022-10-15T02:19:37.142Z,11.99
2022-10-15T02:20:37.072Z,11.99
2022-10-15T02:21:37.082Z,11.99
2022-10-15T02:22:37.101Z,11.99
2022-10-15T02:23:37.158Z,12.06
2022-10-15T02:24:37.087Z,12.06
2022-10-15T02:25:37.159Z,11.99
2022-10-15T02:26:37.060Z,12.13
2022-10-15T02:27:37.061Z,12.13
2022-10-15T02:28:37.098Z,12.06
2022-10-15T02:29:37.062Z,12.06
2022-10-15T02:30:37.237Z,12.06
2022-10-15T02:31:37.085Z,11.99
2022-10-15T02:32:37.080Z,11.99
2022-10-15T02:33:37.079Z,12.06
2022-10-15T02:34:37.105Z,11.99
2022-10-15T02:35:37.050Z,12.13
2022-10-15T02:36:37.063Z,12.13
2022-10-15T02:37:37.062Z,12.13
2022-10-15T02:38:37.129Z,12.13
2022-10-15T02:39:37.083Z,12.21
2022-10-15T02:40:37.056Z,12.21
2022-10-15T02:41:37.054Z,12.13
2022-10-15T02:42:37.053Z,12.13
2022-10-15T02:43:37.063Z,12.13
2022-10-15T02:44:37.068Z,12.06
2022-10-15T02:45:37.096Z,11.99
2022-10-15T02:46:37.062Z,11.99
2022-10-15T02:47:37.065Z,11.99
2022-10-15T02:48:37.057Z,11.99
2022-10-15T02:49:37.091Z,11.99
2022-10-15T02:50:37.054Z,11.99
2022-10-15T02:51:37.058Z,11.99
2022-10-15T02:52:37.065Z,11.99
2022-10-15T02:53:37.111Z,11.99
2022-10-15T02:54:37.061Z,11.99
2022-10-15T02:55:37.062Z,11.99
2022-10-15T02:56:37.053Z,11.99
2022-10-15T02:57:37.075Z,11.91
2022-10-15T02:58:37.057Z,11.91
2022-10-15T02:59:37.065Z,11.91
2022-10-15T03:00:37.071Z,11.91
2022-10-15T03:01:37.087Z,11.91
2022-10-15T03:02:37.051Z,11.91
2022-10-15T03:03:37.105Z,11.84
2022-10-15T03:04:37.074Z,11.91
2022-10-15T03:05:37.056Z,11.84
2022-10-15T03:06:37.095Z,11.84
2022-10-15T03:07:37.055Z,11.91
2022-10-15T03:08:37.131Z,11.91
2022-10-15T03:09:37.138Z,11.84
2022-10-15T03:10:37.139Z,11.84
2022-10-15T03:11:37.142Z,11.84
2022-10-15T03:12:37.176Z,11.84
2022-10-15T03:13:37.147Z,11.77
2022-10-15T03:14:37.053Z,11.84
2022-10-15T03:15:37.063Z,11.84
2022-10-15T03:16:37.164Z,11.84
2022-10-15T03:17:37.059Z,11.84
2022-10-15T03:18:40.463Z,11.84
2022-10-15T03:19:37.083Z,11.84
2022-10-15T03:20:37.092Z,11.77
2022-10-15T03:21:37.096Z,11.77
2022-10-15T03:22:37.102Z,11.77
2022-10-15T03:23:37.188Z,11.77
2022-10-15T03:24:37.119Z,11.77
2022-10-15T03:25:37.130Z,11.77
2022-10-15T03:26:37.138Z,11.77
2022-10-15T03:27:37.155Z,11.77
2022-10-15T03:28:37.331Z,11.77
2022-10-15T03:29:37.272Z,11.84
2022-10-15T03:30:37.142Z,11.84
2022-10-15T03:31:37.322Z,11.77
2022-10-15T03:32:37.312Z,11.77
2022-10-15T03:33:37.340Z,11.69
2022-10-15T03:34:37.436Z,11.69
2022-10-15T03:35:37.119Z,11.69
2022-10-15T03:36:37.097Z,11.69
2022-10-15T03:37:37.115Z,11.77
2022-10-15T03:38:37.114Z,11.77
2022-10-15T03:39:37.118Z,11.69
2022-10-15T03:40:37.114Z,11.69
2022-10-15T03:41:37.180Z,11.69
2022-10-15T03:42:37.038Z,11.62
2022-10-15T03:43:40.247Z,11.69
2022-10-15T03:44:37.083Z,11.69
2022-10-15T03:45:37.152Z,11.69
2022-10-15T03:46:37.163Z,11.77
2022-10-15T03:47:37.229Z,11.69
2022-10-15T03:48:37.175Z,11.69
2022-10-15T03:49:37.077Z,11.69
2022-10-15T03:50:37.122Z,11.69
2022-10-15T03:51:37.195Z,11.69
2022-10-15T03:52:37.085Z,11.69
2022-10-15T03:53:37.142Z,11.77
2022-10-15T03:54:37.077Z,11.77
2022-10-15T03:55:37.119Z,11.77
2022-10-15T03:56:37.120Z,11.77
2022-10-15T03:57:37.130Z,11.77
2022-10-15T03:58:37.065Z,11.77
2022-10-15T03:59:37.218Z,11.77
2022-10-15T04:00:37.144Z,11.77
2022-10-15T04:01:37.281Z,11.77
2022-10-15T04:02:37.153Z,11.77
2022-10-15T04:03:37.175Z,11.77
2022-10-15T04:04:37.177Z,11.77
2022-10-15T04:05:37.084Z,11.77
2022-10-15T04:06:37.080Z,11.77
2022-10-15T04:07:37.085Z,11.77
2022-10-15T04:08:37.196Z,11.69
2022-10-15T04:09:37.112Z,11.69
2022-10-15T04:10:37.048Z,11.77
2022-10-15T04:11:37.212Z,11.77
2022-10-15T04:12:37.133Z,11.77
2022-10-15T04:13:37.071Z,11.77
2022-10-15T04:14:37.150Z,11.77
2022-10-15T04:15:37.089Z,11.77
2022-10-15T04:16:37.069Z,11.77
2022-10-15T04:17:37.076Z,11.77
2022-10-15T04:18:37.074Z,11.77
2022-10-15T04:19:37.171Z,11.77
2022-10-15T04:20:37.166Z,11.77
2022-10-15T04:21:37.061Z,11.77
2022-10-15T04:22:37.068Z,11.69
2022-10-15T04:23:37.092Z,11.69
2022-10-15T04:24:37.088Z,11.69
2022-10-15T04:25:37.106Z,11.69
2022-10-15T04:26:37.211Z,11.62
2022-10-15T04:27:37.115Z,11.55
2022-10-15T04:28:37.123Z,11.62
2022-10-15T04:29:37.128Z,11.55
2022-10-15T04:30:37.168Z,11.55
2022-10-15T04:31:37.068Z,11.55
2022-10-15T04:32:37.167Z,11.55
2022-10-15T04:33:37.152Z,11.55
2022-10-15T04:34:37.111Z,11.48
2022-10-15T04:35:37.194Z,11.48
2022-10-15T04:36:37.089Z,11.48
2022-10-15T04:37:37.153Z,11.41
2022-10-15T04:38:37.148Z,11.41
2022-10-15T04:39:37.201Z,11.48
2022-10-15T04:40:37.199Z,11.48
2022-10-15T04:41:37.207Z,11.48
2022-10-15T04:42:37.235Z,11.48
2022-10-15T04:43:37.319Z,11.48
2022-10-15T04:44:37.304Z,11.48
2022-10-15T04:45:37.345Z,11.48
2022-10-15T04:46:37.307Z,11.48
2022-10-15T04:47:37.094Z,11.41
2022-10-15T04:48:40.350Z,11.34
2022-10-15T04:49:37.085Z,11.34
2022-10-15T04:50:37.107Z,11.34
2022-10-15T04:51:37.077Z,11.34
2022-10-15T04:52:37.067Z,11.34
2022-10-15T04:53:37.096Z,11.41
2022-10-15T04:54:37.205Z,11.41
2022-10-15T04:55:37.072Z,11.41
2022-10-15T04:56:37.097Z,11.48
2022-10-15T04:57:37.225Z,11.48
2022-10-15T04:58:37.113Z,11.48
2022-10-15T04:59:37.234Z,11.55
2022-10-15T05:00:37.117Z,11.55
2022-10-15T05:01:37.139Z,11.55
2022-10-15T05:02:37.217Z,11.55
2022-10-15T05:03:39.712Z,11.62
2022-10-15T05:04:37.075Z,11.62
2022-10-15T05:05:37.152Z,11.62
2022-10-15T05:06:37.175Z,11.55
2022-10-15T05:07:37.069Z,11.62
2022-10-15T05:08:37.098Z,11.55
2022-10-15T05:09:37.326Z,11.62
2022-10-15T05:10:37.089Z,11.62
2022-10-15T05:11:37.132Z,11.69
2022-10-15T05:12:37.129Z,11.69
2022-10-15T05:13:37.208Z,11.69
2022-10-15T05:14:37.111Z,11.69
2022-10-15T05:15:37.218Z,11.62
2022-10-15T05:16:37.140Z,11.69
2022-10-15T05:17:37.130Z,11.62
2022-10-15T05:18:37.265Z,11.69
2022-10-15T05:19:37.271Z,11.62
2022-10-15T05:20:37.243Z,11.62
2022-10-15T05:21:37.422Z,11.62
2022-10-15T05:22:37.251Z,11.62
2022-10-15T05:23:37.357Z,11.62
2022-10-15T05:24:37.413Z,11.62
2022-10-15T05:25:37.178Z,11.55
2022-10-15T05:26:37.188Z,11.62
2022-10-15T05:27:37.092Z,11.62
2022-10-15T05:28:37.179Z,11.62
2022-10-15T05:29:37.209Z,11.62
2022-10-15T05:30:37.075Z,11.62
2022-10-15T05:31:37.136Z,11.62
2022-10-15T05:32:37.094Z,11.69
2022-10-15T05:33:37.075Z,11.69
2022-10-15T05:34:37.138Z,11.62
2022-10-15T05:35:37.137Z,11.69
2022-10-15T05:36:37.152Z,11.62
2022-10-15T05:37:37.151Z,11.69
2022-10-15T05:38:37.170Z,11.62
2022-10-15T05:39:37.321Z,11.69
2022-10-15T05:40:37.173Z,11.77
2022-10-15T05:41:37.126Z,11.69
2022-10-15T05:42:37.079Z,11.69
2022-10-15T05:43:40.360Z,11.69
2022-10-15T05:44:37.134Z,11.69
2022-10-15T05:45:37.104Z,11.77
2022-10-15T05:46:37.119Z,11.69
2022-10-15T05:47:37.125Z,11.69
2022-10-15T05:48:37.074Z,11.69
2022-10-15T05:49:37.126Z,11.77
2022-10-15T05:50:37.157Z,11.77
2022-10-15T05:51:37.147Z,11.69
2022-10-15T05:52:37.159Z,11.77
2022-10-15T05:53:37.075Z,11.77
2022-10-15T05:54:37.083Z,11.77
2022-10-15T05:55:37.104Z,11.77
2022-10-15T05:56:37.169Z,11.77
2022-10-15T05:57:37.185Z,11.77
2022-10-15T05:58:37.686Z,11.77
2022-10-15T05:59:37.220Z,11.69
2022-10-15T06:00:37.205Z,11.77
2022-10-15T06:01:37.167Z,11.77
2022-10-15T06:02:37.266Z,11.84
2022-10-15T06:03:37.127Z,11.84
2022-10-15T06:04:37.092Z,11.84
2022-10-15T06:05:37.134Z,11.77
2022-10-15T06:06:37.071Z,11.77
2022-10-15T06:07:37.144Z,11.69
2022-10-15T06:08:37.146Z,11.69
2022-10-15T06:09:37.107Z,11.69
2022-10-15T06:10:37.089Z,11.69
2022-10-15T06:11:37.167Z,11.77
2022-10-15T06:12:37.077Z,11.77
2022-10-15T06:13:37.186Z,11.77
2022-10-15T06:14:37.197Z,11.77
2022-10-15T06:15:37.191Z,11.69
2022-10-15T06:16:37.096Z,11.69
2022-10-15T06:17:37.113Z,11.62
2022-10-15T06:18:37.074Z,11.69
2022-10-15T06:19:37.074Z,11.69
2022-10-15T06:20:37.073Z,11.69
2022-10-15T06:21:37.130Z,11.69
2022-10-15T06:23:37.122Z,11.69
2022-10-15T06:24:37.075Z,11.62
2022-10-15T06:25:37.155Z,11.62
2022-10-15T06:26:37.107Z,11.62
2022-10-15T06:27:37.082Z,11.62
2022-10-15T06:28:37.180Z,11.62
2022-10-15T06:29:37.077Z,11.55
2022-10-15T06:30:37.183Z,11.55
2022-10-15T06:31:37.198Z,11.55
2022-10-15T06:32:37.095Z,11.55
2022-10-15T06:33:37.108Z,11.55
2022-10-15T06:34:37.111Z,11.48
2022-10-15T06:35:37.124Z,11.55
2022-10-15T06:36:37.133Z,11.55
2022-10-15T06:37:37.086Z,11.62
2022-10-15T06:38:37.134Z,11.55
2022-10-15T06:39:37.146Z,11.62
2022-10-15T06:40:45.904Z,11.62
2022-10-15T06:41:37.331Z,11.62
2022-10-15T06:42:37.413Z,11.62
2022-10-15T06:43:37.376Z,11.62
2022-10-15T06:44:37.425Z,11.62
2022-10-15T06:45:37.497Z,11.69
2022-10-15T06:46:37.600Z,11.77
2022-10-15T06:47:37.095Z,11.77
2022-10-15T06:48:37.102Z,11.84
2022-10-15T06:49:37.094Z,11.91
2022-10-15T06:50:37.080Z,11.91
2022-10-15T06:51:37.089Z,11.91
2022-10-15T06:52:37.076Z,11.99
2022-10-15T06:53:37.106Z,12.06
2022-10-15T06:54:37.160Z,12.13
2022-10-15T06:55:37.158Z,12.13
2022-10-15T06:56:37.157Z,12.13
2022-10-15T06:57:37.171Z,12.21
2022-10-15T06:58:37.170Z,12.21
2022-10-15T06:59:40.429Z,12.28
2022-10-15T07:00:37.222Z,12.28
2022-10-15T07:01:39.894Z,12.28
2022-10-15T07:02:37.194Z,12.36
2022-10-15T07:03:37.102Z,12.44
2022-10-15T07:04:37.086Z,12.44
2022-10-15T07:05:37.219Z,12.51
2022-10-15T07:06:37.123Z,12.51
2022-10-15T07:07:37.135Z,12.59
2022-10-15T07:08:37.140Z,12.67
2022-10-15T07:09:37.132Z,12.59
2022-10-15T07:10:37.137Z,12.59
2022-10-15T07:11:37.163Z,12.59
2022-10-15T07:12:37.182Z,12.59
2022-10-15T07:13:37.174Z,12.67
2022-10-15T07:14:40.095Z,12.59
2022-10-15T07:15:37.103Z,12.59
2022-10-15T07:16:37.188Z,12.59
2022-10-15T07:17:37.136Z,12.59
2022-10-15T07:18:37.097Z,12.59
2022-10-15T07:19:37.111Z,12.59
2022-10-15T07:20:37.106Z,12.51
2022-10-15T07:21:37.114Z,12.51
2022-10-15T07:22:37.130Z,12.51
2022-10-15T07:23:37.133Z,12.51
2022-10-15T07:24:37.141Z,12.51
2022-10-15T07:25:37.143Z,12.51
2022-10-15T07:26:37.137Z,12.51
2022-10-15T07:27:37.166Z,12.51
2022-10-15T07:28:37.185Z,12.59
2022-10-15T07:30:37.104Z,12.67
2022-10-15T07:31:37.255Z,12.74
2022-10-15T07:32:37.189Z,12.67
2022-10-15T07:33:37.206Z,12.74
2022-10-15T07:34:37.090Z,12.82
2022-10-15T07:35:37.113Z,12.9
2022-10-15T07:36:37.215Z,12.98
2022-10-15T07:37:37.126Z,12.98
2022-10-15T07:38:37.123Z,13.14
2022-10-15T07:39:40.667Z,13.14
2022-10-15T07:40:37.255Z,13.22
2022-10-15T07:41:37.146Z,13.14
2022-10-15T07:42:37.103Z,13.06
2022-10-15T07:43:37.115Z,13.14
2022-10-15T07:44:37.171Z,13.14
2022-10-15T07:45:37.172Z,13.06
2022-10-15T07:46:37.164Z,13.06
2022-10-15T07:47:37.178Z,13.06
2022-10-15T07:48:37.182Z,13.22
2022-10-15T07:49:37.195Z,13.22
2022-10-15T07:50:39.191Z,13.22
2022-10-15T07:51:37.096Z,13.22
2022-10-15T07:52:37.111Z,13.22
2022-10-15T07:53:37.090Z,13.22
2022-10-15T07:54:37.127Z,13.3
2022-10-15T07:55:37.127Z,13.3
2022-10-15T07:56:37.241Z,13.3
2022-10-15T07:57:37.149Z,13.3
2022-10-15T07:58:37.256Z,13.3
2022-10-15T07:59:37.158Z,13.3
2022-10-15T08:00:37.166Z,13.22
2022-10-15T08:01:37.163Z,13.3
2022-10-15T08:02:37.184Z,13.3
2022-10-15T08:03:37.187Z,13.3
2022-10-15T08:04:37.192Z,13.46
2022-10-15T08:05:37.201Z,13.46
2022-10-15T08:06:37.105Z,13.54
2022-10-15T08:07:37.094Z,13.54
2022-10-15T08:08:37.101Z,13.63
2022-10-15T08:09:37.187Z,13.71
2022-10-15T08:10:37.124Z,13.63
2022-10-15T08:11:37.229Z,13.63
2022-10-15T08:12:37.128Z,13.71
2022-10-15T08:13:37.146Z,13.71
2022-10-15T08:14:37.172Z,13.79
2022-10-15T08:15:37.159Z,13.79
2022-10-15T08:16:37.165Z,13.79
2022-10-15T08:17:37.164Z,13.79
2022-10-15T08:18:37.171Z,13.79
2022-10-15T08:19:37.149Z,13.79
2022-10-15T08:20:37.086Z,13.87
2022-10-15T08:21:37.183Z,13.96
2022-10-15T08:22:37.098Z,14.04
2022-10-15T08:23:37.213Z,14.04
2022-10-15T08:24:37.108Z,14.04
2022-10-15T08:25:37.133Z,14.04
2022-10-15T08:26:37.236Z,14.04
2022-10-15T08:27:37.240Z,13.87
2022-10-15T08:28:37.232Z,13.87
2022-10-15T08:29:37.145Z,13.79
2022-10-15T08:30:37.149Z,13.79
2022-10-15T08:31:37.114Z,13.79
2022-10-15T08:32:37.169Z,13.87
2022-10-15T08:33:37.112Z,13.87
2022-10-15T08:34:37.105Z,13.79
2022-10-15T08:35:37.189Z,13.87
2022-10-15T08:36:37.191Z,13.87
2022-10-15T08:37:37.196Z,13.87
2022-10-15T08:38:37.203Z,13.87
2022-10-15T08:39:37.209Z,13.96
2022-10-15T08:40:37.212Z,14.04
2022-10-15T08:41:37.116Z,14.13
2022-10-15T08:42:37.560Z,14.13
2022-10-15T08:43:37.456Z,14.13
2022-10-15T08:44:37.137Z,14.21
2022-10-15T08:45:37.123Z,14.13
2022-10-15T08:46:37.129Z,14.21
2022-10-15T08:47:37.153Z,14.21
2022-10-15T08:48:37.102Z,14.21
2022-10-15T08:49:37.108Z,14.13
2022-10-15T08:50:37.146Z,14.21
2022-10-15T08:51:37.103Z,14.13
2022-10-15T08:52:37.098Z,14.13
2022-10-15T08:53:37.108Z,14.04
2022-10-15T08:54:37.116Z,13.96
2022-10-15T08:55:37.105Z,14.04
2022-10-15T08:56:37.099Z,14.13
2022-10-15T08:57:37.121Z,14.21
2022-10-15T08:58:39.699Z,14.3
2022-10-15T08:59:37.111Z,14.3
2022-10-15T09:00:37.103Z,14.38
2022-10-15T09:01:37.125Z,14.38
2022-10-15T09:02:37.140Z,14.3
2022-10-15T09:03:37.100Z,14.38
2022-10-15T09:04:37.104Z,14.47
2022-10-15T09:05:37.108Z,14.47
2022-10-15T09:06:37.188Z,14.47
2022-10-15T09:07:37.286Z,14.56
2022-10-15T09:08:37.102Z,14.56
2022-10-15T09:09:37.126Z,14.56
2022-10-15T09:10:37.086Z,14.73
2022-10-15T09:11:37.140Z,14.82
2022-10-15T09:12:37.107Z,14.91
2022-10-15T09:14:37.150Z,14.91
2022-10-15T09:15:37.107Z,14.82
2022-10-15T09:16:37.151Z,14.82
2022-10-15T09:17:37.091Z,14.82
2022-10-15T09:18:37.116Z,14.82
2022-10-15T09:19:37.100Z,14.91
2022-10-15T09:20:37.130Z,14.82
2022-10-15T09:21:37.174Z,15
2022-10-15T09:22:37.155Z,15.09
2022-10-15T09:23:37.095Z,15.18
2022-10-15T09:24:37.103Z,15.18
2022-10-15T09:25:37.146Z,15.27
2022-10-15T09:26:37.095Z,15.27
2022-10-15T09:27:37.105Z,15.36
2022-10-15T09:28:37.171Z,15.36
2022-10-15T09:29:37.159Z,15.36
2022-10-15T09:30:37.118Z,15.18
2022-10-15T09:31:37.132Z,15
2022-10-15T09:32:37.111Z,15
2022-10-15T09:33:37.143Z,15
2022-10-15T09:34:37.118Z,15
2022-10-15T09:35:37.122Z,15
2022-10-15T09:36:37.113Z,15
2022-10-15T09:37:37.151Z,15
2022-10-15T09:38:37.111Z,15
2022-10-15T09:39:37.214Z,15.09
2022-10-15T09:40:37.099Z,15.09
2022-10-15T09:41:37.130Z,15.18
2022-10-15T09:42:37.146Z,15.27
2022-10-15T09:43:37.111Z,15.36
2022-10-15T09:44:37.119Z,15.55
2022-10-15T09:45:37.151Z,15.64
2022-10-15T09:46:37.131Z,15.83
2022-10-15T09:47:37.121Z,15.92
2022-10-15T09:48:37.096Z,15.92
2022-10-15T09:49:37.110Z,16.01
2022-10-15T09:50:37.122Z,16.3
2022-10-15T09:51:37.116Z,16.4
2022-10-15T09:52:37.166Z,16.5
2022-10-15T09:53:37.110Z,16.59
2022-10-15T09:54:37.104Z,16.5
2022-10-15T09:55:37.114Z,16.69
2022-10-15T09:56:37.133Z,16.79
2022-10-15T09:57:37.109Z,16.59
2022-10-15T09:58:37.107Z,16.5
2022-10-15T09:59:37.146Z,16.5
2022-10-15T10:00:37.156Z,16.3
2022-10-15T10:01:37.255Z,16.11
2022-10-15T10:02:37.246Z,16.11
2022-10-15T10:03:37.112Z,16.11
2022-10-15T10:04:37.119Z,16.21
2022-10-15T10:05:37.120Z,16.4
2022-10-15T10:06:37.114Z,16.5
2022-10-15T10:07:37.117Z,16.4
2022-10-15T10:08:37.203Z,16.3
2022-10-15T10:09:37.115Z,16.3
2022-10-15T10:10:37.227Z,16.3
2022-10-15T10:11:37.106Z,16.21
2022-10-15T10:12:37.180Z,16.11
2022-10-15T10:13:37.192Z,16.21
2022-10-15T10:14:37.116Z,16.01
2022-10-15T10:15:37.138Z,16.11
2022-10-15T10:16:37.240Z,16.01
2022-10-15T10:17:37.223Z,16.01
2022-10-15T10:18:37.141Z,16.11
2022-10-15T10:19:37.128Z,16.01
2022-10-15T10:20:37.110Z,15.92
2022-10-15T10:21:37.124Z,15.92
2022-10-15T10:22:37.150Z,15.92
2022-10-15T10:23:37.256Z,15.73
2022-10-15T10:24:37.166Z,15.64
2022-10-15T10:25:37.171Z,15.64
2022-10-15T10:26:37.186Z,15.64
2022-10-15T10:27:37.193Z,15.55
2022-10-15T10:28:40.520Z,15.64
2022-10-15T10:29:37.302Z,15.73
2022-10-15T10:30:37.138Z,15.73
2022-10-15T10:31:37.231Z,15.83
2022-10-15T10:32:37.221Z,16.01
2022-10-15T10:33:37.218Z,16.01
2022-10-15T10:34:37.458Z,16.21
2022-10-15T10:35:37.310Z,16.3
2022-10-15T10:36:40.685Z,16.4
2022-10-15T10:37:37.142Z,16.5
2022-10-15T10:38:37.158Z,16.59
2022-10-15T10:39:37.634Z,16.79
2022-10-15T10:40:37.116Z,17.09
2022-10-15T10:41:37.134Z,17.09
2022-10-15T10:42:37.121Z,17.29
2022-10-15T10:43:39.254Z,17.39
2022-10-15T10:44:37.189Z,17.49
2022-10-15T10:45:37.202Z,17.7
2022-10-15T10:46:37.221Z,17.8
2022-10-15T10:47:37.207Z,18.12
2022-10-15T10:48:37.125Z,18.43
2022-10-15T10:49:37.250Z,18.43
2022-10-15T10:50:37.130Z,18.22
2022-10-15T10:51:37.136Z,18.33
2022-10-15T10:52:37.251Z,18.22
2022-10-15T10:53:37.123Z,17.8
2022-10-15T10:54:37.145Z,17.8
2022-10-15T10:55:37.166Z,17.7
2022-10-15T10:56:37.164Z,17.7
2022-10-15T10:57:37.167Z,17.7
2022-10-15T10:58:37.180Z,17.7
2022-10-15T10:59:37.191Z,17.8
2022-10-15T11:00:37.158Z,17.8
2022-10-15T11:01:37.234Z,17.49
2022-10-15T11:02:37.172Z,17.6
2022-10-15T11:03:37.207Z,17.49
2022-10-15T11:04:37.225Z,17.39
2022-10-15T11:05:37.225Z,17.39
2022-10-15T11:06:37.135Z,17.29
2022-10-15T11:07:37.138Z,17.29
2022-10-15T11:08:37.140Z,17.09
2022-10-15T11:09:37.171Z,16.99
2022-10-15T11:10:37.175Z,16.69
2022-10-15T11:11:37.161Z,16.69
2022-10-15T11:12:37.129Z,16.69
2022-10-15T11:13:37.182Z,16.69
2022-10-15T11:14:37.190Z,16.69
2022-10-15T11:15:37.129Z,16.5
2022-10-15T11:16:37.209Z,16.5
2022-10-15T11:17:37.221Z,16.5
2022-10-15T11:18:37.203Z,16.5
2022-10-15T11:20:05.864Z,16.5
2022-10-15T11:20:53.186Z,16.3
2022-10-15T11:21:37.133Z,16.21
2022-10-15T11:22:37.145Z,16.4
2022-10-15T11:23:37.232Z,16.5
2022-10-15T11:24:48.369Z,16.4
2022-10-15T11:25:37.174Z,16.5
2022-10-15T11:26:46.152Z,16.5
2022-10-15T11:27:37.150Z,16.5
2022-10-15T11:28:37.226Z,16.5
2022-10-15T11:29:37.226Z,16.5
2022-10-15T11:30:37.149Z,16.4
2022-10-15T11:31:44.232Z,16.5
2022-10-15T11:32:54.454Z,16.59
2022-10-15T11:33:37.212Z,16.69
2022-10-15T11:34:37.245Z,16.59
2022-10-15T11:35:52.336Z,16.59
2022-10-15T11:36:37.125Z,16.5
2022-10-15T11:37:37.224Z,16.5
2022-10-15T11:38:37.237Z,16.5
2022-10-15T11:39:37.252Z,16.4
2022-10-15T11:40:37.158Z,16.3
2022-10-15T11:41:37.172Z,16.3
2022-10-15T11:42:37.151Z,16.3
2022-10-15T11:43:37.162Z,16.21
2022-10-15T11:44:37.173Z,16.21
2022-10-15T11:45:37.173Z,16.3
2022-10-15T11:46:37.199Z,16.21
2022-10-15T11:47:37.187Z,16.01
2022-10-15T11:48:37.151Z,16.01
2022-10-15T11:49:37.184Z,15.92
2022-10-15T11:50:37.176Z,16.01
2022-10-15T11:51:37.231Z,16.11
2022-10-15T11:52:37.210Z,16.01
2022-10-15T11:53:37.228Z,16.01
2022-10-15T11:54:37.144Z,16.01
2022-10-15T11:55:37.144Z,16.01
2022-10-15T11:56:38.925Z,15.92
2022-10-15T11:57:37.253Z,15.83
2022-10-15T11:58:37.150Z,15.83
2022-10-15T11:59:37.164Z,15.73
2022-10-15T12:00:37.136Z,15.64
2022-10-15T12:01:37.189Z,15.55
2022-10-15T12:02:37.182Z,15.64
2022-10-15T12:03:37.181Z,15.64
2022-10-15T12:04:37.219Z,15.64
2022-10-15T12:05:37.197Z,15.64
2022-10-15T12:06:37.206Z,15.73
2022-10-15T12:07:37.204Z,15.64
2022-10-15T12:08:37.235Z,15.55
2022-10-15T12:09:37.121Z,15.55
2022-10-15T12:10:37.156Z,15.73
2022-10-15T12:11:37.146Z,15.73
2022-10-15T12:12:37.260Z,15.64
2022-10-15T12:13:37.125Z,15.73
2022-10-15T12:14:37.156Z,15.73
2022-10-15T12:15:37.163Z,15.73
2022-10-15T12:16:37.207Z,15.73
2022-10-15T12:17:37.179Z,15.73
2022-10-15T12:18:37.183Z,15.73
2022-10-15T12:19:37.213Z,15.73
2022-10-15T12:20:37.172Z,15.73
2022-10-15T12:21:37.141Z,15.73
2022-10-15T12:22:37.283Z,15.73
2022-10-15T12:23:37.159Z,15.83
2022-10-15T12:24:37.207Z,15.73
2022-10-15T12:25:37.155Z,15.73
2022-10-15T12:26:37.139Z,15.73
2022-10-15T12:27:37.241Z,15.83
2022-10-15T12:28:37.314Z,15.83
2022-10-15T12:29:37.260Z,15.92
2022-10-15T12:30:37.146Z,15.83
2022-10-15T12:31:38.531Z,15.73
2022-10-15T12:32:37.379Z,15.73
2022-10-15T12:33:37.446Z,15.73
2022-10-15T12:34:37.431Z,15.64
2022-10-15T12:35:37.451Z,15.64
2022-10-15T12:36:37.174Z,15.64
2022-10-15T12:37:37.135Z,15.64
2022-10-15T12:38:37.208Z,15.73
2022-10-15T12:39:53.212Z,15.64
2022-10-15T12:40:37.143Z,15.73
2022-10-15T12:41:37.223Z,15.73
2022-10-15T12:42:37.241Z,15.73
2022-10-15T12:43:37.239Z,15.64
2022-10-15T12:44:37.249Z,15.55
2022-10-15T12:45:40.006Z,15.55
2022-10-15T12:46:37.158Z,15.64
2022-10-15T12:47:37.170Z,15.73
2022-10-15T12:48:37.142Z,15.64
2022-10-15T12:49:37.155Z,15.73
2022-10-15T12:50:37.153Z,15.83
2022-10-15T12:51:37.298Z,15.83
2022-10-15T12:52:37.198Z,15.92
2022-10-15T12:54:37.166Z,16.21
2022-10-15T12:55:37.219Z,16.4
2022-10-15T12:56:37.212Z,16.3
2022-10-15T12:57:37.151Z,16.4
2022-10-15T12:58:37.155Z,16.5
2022-10-15T12:59:37.246Z,16.59